createdAt,value
2022-09-18T00:03:41.885Z,13.63
2022-09-18T00:09:44.384Z,13.43
2022-09-18T00:15:55.095Z,18.27
2022-09-18T00:21:57.002Z,13.05
2022-09-18T00:27:59.221Z,10.45
2022-09-18T00:34:04.568Z,13.55
2022-09-18T00:40:06.804Z,12.48
2022-09-18T00:46:30.229Z,14.68
2022-09-18T00:52:42.316Z,17.30
2022-09-18T00:58:46.075Z,14.40
2022-09-18T01:04:49.245Z,9.70
2022-09-18T01:11:07.079Z,12.90
2022-09-18T01:17:15.477Z,19.90
2022-09-18T01:23:47.319Z,13.48
2022-09-18T01:30:02.478Z,13.68
2022-09-18T01:36:10.074Z,11.38
2022-09-18T01:42:14.085Z,18.83
2022-09-18T01:48:30.511Z,10.68
2022-09-18T01:54:38.046Z,15.53
2022-09-18T02:00:46.809Z,12.50
2022-09-18T02:06:57.546Z,10.60
2022-09-18T02:13:01.507Z,16.25
2022-09-18T02:19:13.468Z,13.75
2022-09-18T02:25:18.990Z,10.27
2022-09-18T02:31:21.232Z,11.95
2022-09-18T02:37:56.885Z,13.30
2022-09-18T02:44:09.863Z,10.75
2022-09-18T02:50:21.889Z,14.68
2022-09-18T02:56:44.537Z,14.27
2022-09-18T03:02:47.755Z,10.48
2022-09-18T03:08:56.643Z,12.80
2022-09-18T03:14:58.450Z,11.63
2022-09-18T03:21:00.281Z,10.75
2022-09-18T03:27:02.869Z,13.27
2022-09-18T03:33:05.054Z,13.38
2022-09-18T03:39:07.675Z,10.93
2022-09-18T03:45:10.699Z,8.63
2022-09-18T03:51:12.670Z,13.43
2022-09-18T03:57:14.669Z,19.73
2022-09-18T04:03:40.165Z,11.77
2022-09-18T04:10:20.616Z,13.32
2022-09-18T04:16:22.653Z,14.23
2022-09-18T04:22:26.763Z,15.07
2022-09-18T04:28:28.627Z,10.90
2022-09-18T04:34:30.534Z,15.10
2022-09-18T04:40:32.585Z,13.00
2022-09-18T04:46:35.395Z,14.52
2022-09-18T04:52:37.759Z,17.63
2022-09-18T04:58:39.619Z,16.65
2022-09-18T05:04:41.468Z,17.30
2022-09-18T05:10:54.154Z,19.00
2022-09-18T05:16:56.471Z,18.00
2022-09-18T05:23:08.679Z,21.40
2022-09-18T05:29:12.033Z,17.90
2022-09-18T05:35:15.100Z,10.90
2022-09-18T05:41:18.163Z,14.85
2022-09-18T05:47:20.615Z,14.18
2022-09-18T05:53:22.704Z,14.05
2022-09-18T05:59:34.356Z,17.20
2022-09-18T06:05:37.811Z,15.18
2022-09-18T06:11:39.720Z,17.30
2022-09-18T06:17:42.062Z,11.20
2022-09-18T06:23:44.051Z,17.85
2022-09-18T06:29:54.173Z,15.85
2022-09-18T06:36:11.908Z,12.70
2022-09-18T06:42:20.250Z,18.85
2022-09-18T06:48:36.929Z,13.13
2022-09-18T06:54:38.744Z,14.50
2022-09-18T07:00:40.617Z,10.93
2022-09-18T07:06:46.364Z,11.20
2022-09-18T07:12:49.463Z,11.38
2022-09-18T07:18:53.907Z,9.10
2022-09-18T07:24:56.232Z,11.27
2022-09-18T07:31:04.030Z,10.05
2022-09-18T07:37:06.017Z,13.32
2022-09-18T07:43:10.292Z,12.77
2022-09-18T07:49:18.679Z,10.80
2022-09-18T07:55:22.321Z,10.10
2022-09-18T08:01:27.491Z,10.88
2022-09-18T08:07:32.275Z,8.90
2022-09-18T08:13:51.614Z,12.07
2022-09-18T08:20:14.284Z,7.78
2022-09-18T08:26:22.636Z,7.60
2022-09-18T08:32:26.446Z,10.70
2022-09-18T08:38:30.996Z,5.20
2022-09-18T08:44:59.337Z,3.35
2022-09-18T08:51:14.077Z,4.60
2022-09-18T08:57:39.268Z,3.72
2022-09-18T09:03:55.855Z,6.63
2022-09-18T09:10:07.117Z,3.08
2022-09-18T09:16:24.322Z,6.80
2022-09-18T09:22:47.587Z,7.05
2022-09-18T09:29:01.173Z,5.80
2022-09-18T09:35:29.649Z,5.97
2022-09-18T09:41:41.798Z,4.72
2022-09-18T09:47:52.241Z,11.48
2022-09-18T09:53:56.027Z,5.70
2022-09-18T10:00:15.293Z,4.75
2022-09-18T10:06:50.847Z,9.75
2022-09-18T10:13:01.584Z,6.18
2022-09-18T10:19:03.915Z,4.07
2022-09-18T10:25:16.943Z,6.18
2022-09-18T10:31:19.903Z,2.92
2022-09-18T10:37:28.581Z,6.85
2022-09-18T10:43:34.776Z,2.00
2022-09-18T10:49:49.786Z,6.10
2022-09-18T10:55:55.929Z,3.40
2022-09-18T11:02:00.154Z,3.42
2022-09-18T11:08:13.104Z,2.50
2022-09-18T11:14:24.970Z,3.60
2022-09-18T11:20:45.038Z,5.38
2022-09-18T11:26:54.521Z,4.55
2022-09-18T11:33:13.621Z,3.47
2022-09-18T11:39:24.688Z,2.75
2022-09-18T11:45:34.828Z,3.15
2022-09-18T11:51:57.698Z,3.97
2022-09-18T11:58:20.155Z,2.45
2022-09-18T12:05:03.017Z,1.67
2022-09-18T12:11:12.627Z,1.27
2022-09-18T12:17:44.865Z,2.35
2022-09-18T12:23:47.231Z,1.95
2022-09-18T12:29:59.747Z,2.60
2022-09-18T12:36:34.220Z,1.50
2022-09-18T12:42:55.753Z,2.88
2022-09-18T12:49:09.690Z,2.95
2022-09-18T12:55:51.049Z,3.38
2022-09-18T13:02:27.050Z,2.50
2022-09-18T13:08:35.095Z,3.72
2022-09-18T13:14:52.973Z,4.93
2022-09-18T13:20:58.523Z,1.30
2022-09-18T13:27:03.994Z,1.50
2022-09-18T13:33:05.911Z,3.63
2022-09-18T13:39:26.917Z,1.77
2022-09-18T13:45:37.715Z,3.15
2022-09-18T13:51:40.637Z,1.85
2022-09-18T13:57:44.203Z,2.67
2022-09-18T14:03:46.245Z,1.70
2022-09-18T14:09:58.232Z,1.25
2022-09-18T14:16:24.060Z,2.95
2022-09-18T14:22:29.855Z,2.45
2022-09-18T14:28:32.206Z,3.35
2022-09-18T14:34:38.419Z,3.80
2022-09-18T14:40:40.558Z,3.20
2022-09-18T14:46:55.682Z,2.30
2022-09-18T14:52:59.738Z,1.90
2022-09-18T14:59:06.617Z,1.80
2022-09-18T15:05:12.443Z,3.45
2022-09-18T15:11:16.113Z,1.75
2022-09-18T15:17:22.283Z,1.15
2022-09-18T15:23:28.133Z,1.52
2022-09-18T15:29:38.430Z,3.55
2022-09-18T15:35:40.280Z,5.30
2022-09-18T15:41:43.700Z,2.35
2022-09-18T15:47:45.951Z,4.60
2022-09-18T15:54:22.587Z,4.57
2022-09-18T16:00:33.681Z,4.45
2022-09-18T16:06:41.810Z,3.85
2022-09-18T16:12:50.658Z,3.70
2022-09-18T16:18:52.572Z,2.42
2022-09-18T16:24:56.744Z,3.13
2022-09-18T16:30:58.845Z,9.15
2022-09-18T16:37:00.608Z,2.60
2022-09-18T16:43:03.069Z,2.60
2022-09-18T16:49:04.844Z,1.58
2022-09-18T16:55:07.589Z,4.43
2022-09-18T17:01:09.794Z,5.38
2022-09-18T17:07:11.703Z,4.00
2022-09-18T17:13:13.968Z,5.30
2022-09-18T17:19:16.040Z,4.15
2022-09-18T17:25:18.010Z,9.02
2022-09-18T17:31:19.896Z,4.80
2022-09-18T17:37:21.856Z,4.45
2022-09-18T17:43:25.094Z,4.38
2022-09-18T17:49:26.873Z,4.40
2022-09-18T17:55:28.755Z,4.78
2022-09-18T18:01:30.768Z,12.93
2022-09-18T18:07:32.584Z,2.83
2022-09-18T18:13:39.172Z,5.05
2022-09-18T18:19:41.055Z,27.58
2022-09-18T18:25:42.975Z,4.38
2022-09-18T18:31:45.849Z,7.72
2022-09-18T18:37:48.077Z,4.75
2022-09-18T18:43:55.844Z,9.02
2022-09-18T18:49:57.641Z,5.28
2022-09-18T18:56:04.117Z,9.52
2022-09-18T19:02:06.515Z,5.70
2022-09-18T19:08:09.312Z,12.88
2022-09-18T19:14:14.089Z,8.00
2022-09-18T19:20:15.950Z,12.38
2022-09-18T19:26:21.157Z,7.70
2022-09-18T19:32:22.904Z,8.77
2022-09-18T19:38:25.149Z,5.78
2022-09-18T19:44:38.826Z,7.70
2022-09-18T19:50:40.785Z,5.22
2022-09-18T19:56:47.599Z,6.05
2022-09-18T20:02:50.131Z,7.82
2022-09-18T20:08:51.907Z,8.75
2022-09-18T20:14:53.712Z,6.78
2022-09-18T20:20:55.467Z,8.52
2022-09-18T20:26:58.278Z,7.60
2022-09-18T20:33:01.158Z,5.50
2022-09-18T20:39:03.684Z,8.15
2022-09-18T20:45:06.097Z,6.18
2022-09-18T20:51:10.737Z,8.32
2022-09-18T20:57:13.539Z,6.22
2022-09-18T21:03:21.083Z,4.80
2022-09-18T21:09:27.423Z,3.67
2022-09-18T21:15:29.293Z,7.32
2022-09-18T21:21:36.381Z,6.78
2022-09-18T21:27:38.217Z,8.73
2022-09-18T21:33:41.373Z,5.45
2022-09-18T21:39:44.037Z,3.65
2022-09-18T21:45:45.889Z,7.75
2022-09-18T21:51:47.735Z,12.02
2022-09-18T21:57:49.797Z,7.10
2022-09-18T22:03:56.266Z,4.03
2022-09-18T22:09:58.414Z,6.75
2022-09-18T22:16:01.602Z,4.00
2022-09-18T22:22:03.745Z,4.85
2022-09-18T22:28:05.604Z,5.20
2022-09-18T22:34:07.465Z,7.10
2022-09-18T22:40:09.626Z,3.30
2022-09-18T22:46:13.533Z,6.22
2022-09-18T22:52:15.336Z,4.32
2022-09-18T22:58:17.124Z,2.33
2022-09-18T23:04:20.830Z,8.02
2022-09-18T23:10:22.740Z,2.20
2022-09-18T23:16:26.857Z,2.38
2022-09-18T23:22:28.701Z,6.18
2022-09-18T23:28:35.852Z,3.05
2022-09-18T23:34:37.907Z,5.37
2022-09-18T23:40:39.698Z,5.50
2022-09-18T23:46:42.676Z,4.18
2022-09-18T23:52:44.446Z,4.70
2022-09-18T23:58:46.274Z,4.68
